Time;durP1;ratioP1;P1;durP2;ratioP2;P2;SDS_P1;SDS_P2;PMS_P1;PMS_P2;Temp;Humidity;BMP_temperature;BMP_pressure;BME280_temperature;BME280_humidity;BME280_pressure;Samples;Min_cycle;Max_cycle;Signal;HPM_P1;HPM_P2
2021/09/14 00:00:35;;;;;;;3.33;2.40;;;19.90;66.20;;;;;;5051763;28;20132;-83
2021/09/14 00:03:01;;;;;;;3.17;2.17;;;19.90;66.20;;;;;;5036671;28;20056;-81
2021/09/14 00:05:27;;;;;;;3.30;2.33;;;19.90;66.30;;;;;;5022113;28;20120;-81
2021/09/14 00:07:52;;;;;;;3.90;2.65;;;19.90;66.30;;;;;;5022174;28;20029;-82
2021/09/14 00:10:18;;;;;;;3.13;2.35;;;19.90;66.30;;;;;;5022022;28;20025;-81
2021/09/14 00:12:44;;;;;;;3.13;2.28;;;19.80;66.30;;;;;;5022286;28;20045;-82
2021/09/14 00:15:10;;;;;;;3.58;2.58;;;19.80;66.30;;;;;;5022410;28;20029;-83
2021/09/14 00:17:36;;;;;;;4.28;2.95;;;19.80;66.30;;;;;;5022288;28;20068;-82
2021/09/14 00:20:03;;;;;;;4.03;2.33;;;19.80;67.00;;;;;;5038606;28;20021;-81
2021/09/14 00:22:29;;;;;;;3.60;2.42;;;19.80;66.40;;;;;;5039409;28;20047;-82
2021/09/14 00:24:55;;;;;;;3.83;2.72;;;19.80;66.40;;;;;;5022805;28;20449;-82
2021/09/14 00:27:21;;;;;;;3.63;2.47;;;19.80;66.40;;;;;;5022099;28;20469;-82
2021/09/14 00:29:46;;;;;;;3.65;2.65;;;19.80;66.40;;;;;;5022012;28;20467;-83
2021/09/14 00:32:12;;;;;;;4.53;2.75;;;19.70;66.40;;;;;;5021988;28;20033;-83
2021/09/14 00:34:38;;;;;;;4.10;2.60;;;19.70;66.40;;;;;;5022721;28;20120;-82
2021/09/14 00:37:04;;;;;;;4.32;2.83;;;19.70;66.40;;;;;;5021848;28;20039;-83
2021/09/14 00:39:30;;;;;;;3.90;2.78;;;19.70;66.40;;;;;;5021902;28;20029;-82
2021/09/14 00:41:56;;;;;;;3.60;2.58;;;19.70;66.40;;;;;;5021888;28;20041;-82
2021/09/14 00:44:22;;;;;;;3.53;2.67;;;19.70;66.40;;;;;;5021769;28;20106;-82
2021/09/14 00:46:49;;;;;;;5.32;2.85;;;19.60;66.40;;;;;;5021917;28;20036;-82
2021/09/14 00:49:15;;;;;;;3.58;2.60;;;19.60;66.40;;;;;;5021960;28;20029;-82
2021/09/14 00:51:41;;;;;;;3.97;2.40;;;19.60;66.50;;;;;;5037998;28;20037;-81
2021/09/14 00:54:17;;;;;;;4.00;2.50;;;19.60;66.50;;;;;;5038180;28;20013;-82
2021/09/14 00:56:43;;;;;;;4.28;2.63;;;19.60;66.60;;;;;;5038078;28;20086;-82
2021/09/14 00:59:10;;;;;;;3.83;2.65;;;19.50;66.50;;;;;;5038084;28;20495;-82
2021/09/14 01:01:36;;;;;;;3.90;2.72;;;19.50;66.50;;;;;;5022022;28;20040;-82
2021/09/14 01:04:03;;;;;;;4.57;2.80;;;19.50;66.50;;;;;;5018969;28;20128;-81
2021/09/14 01:06:30;;;;;;;3.85;2.67;;;19.50;66.50;;;;;;5018680;28;20033;-81
2021/09/14 01:08:58;;;;;;;4.32;2.60;;;19.50;66.60;;;;;;5017697;28;20030;-82
2021/09/14 01:11:24;;;;;;;3.33;2.63;;;19.50;66.60;;;;;;5001820;28;20034;-82
2021/09/14 01:14:00;;;;;;;3.97;2.92;;;19.50;66.60;;;;;;5017834;28;20079;-81
2021/09/14 01:16:26;;;;;;;4.18;2.63;;;19.40;66.70;;;;;;5002240;28;20044;-82
2021/09/14 01:18:52;;;;;;;4.95;2.70;;;19.40;66.60;;;;;;5017770;28;20377;-82
2021/09/14 01:21:21;;;;;;;4.35;3.13;;;19.40;66.70;;;;;;5017401;28;20028;-82
2021/09/14 01:23:47;;;;;;;3.85;2.70;;;19.40;66.70;;;;;;5018191;28;20091;-81
2021/09/14 01:26:12;;;;;;;3.38;2.58;;;19.40;66.70;;;;;;5017508;28;20033;-82
2021/09/14 01:28:38;;;;;;;3.33;2.50;;;19.40;66.80;;;;;;5017287;28;20021;-82
2021/09/14 01:31:06;;;;;;;3.70;2.65;;;19.30;66.70;;;;;;5017579;28;20537;-82
2021/09/14 01:33:32;;;;;;;4.15;2.88;;;19.30;66.70;;;;;;5017646;28;20033;-82
2021/09/14 01:35:59;;;;;;;3.72;2.67;;;19.30;66.70;;;;;;4985313;28;20033;-82
2021/09/14 01:38:25;;;;;;;4.03;2.60;;;19.30;66.80;;;;;;5017396;28;20052;-82
2021/09/14 01:40:53;;;;;;;4.30;2.83;;;19.30;66.80;;;;;;5001132;28;20124;-81
2021/09/14 01:43:19;;;;;;;3.53;2.50;;;19.30;66.80;;;;;;5017982;28;20037;-82
2021/09/14 01:45:47;;;;;;;3.38;2.55;;;19.30;66.90;;;;;;5017220;28;20022;-82
2021/09/14 01:48:21;;;;;;;4.97;3.22;;;19.20;66.80;;;;;;5002340;28;20036;-82
2021/09/14 01:50:47;;;;;;;3.70;2.67;;;19.20;66.90;;;;;;5000925;28;20389;-81
2021/09/14 01:53:13;;;;;;;4.28;3.08;;;19.20;66.90;;;;;;5017888;28;20036;-81
2021/09/14 01:55:39;;;;;;;3.60;2.63;;;19.20;66.90;;;;;;4984809;28;20041;-81
2021/09/14 01:58:05;;;;;;;4.45;2.78;;;19.20;66.90;;;;;;5017920;28;20035;-81
2021/09/14 02:00:33;;;;;;;3.45;2.38;;;19.20;66.90;;;;;;5016974;28;20043;-82
2021/09/14 02:09:16;;;;;;;5.32;3.08;;;19.10;66.80;;;;;;5022654;28;20041;-81
2021/09/14 02:56:36;;;;;;;4.13;2.80;;;18.80;67.20;;;;;;5023225;28;20284;-81
2021/09/14 02:58:56;;;;;;;4.35;2.67;;;18.80;67.20;;;;;;5035421;28;20044;-81
2021/09/14 03:01:22;;;;;;;5.22;3.15;;;18.80;67.20;;;;;;5019540;28;20469;-81
2021/09/14 03:03:50;;;;;;;4.97;3.03;;;18.80;67.30;;;;;;5020325;28;20049;-81
2021/09/14 03:06:19;;;;;;;3.97;3.00;;;18.80;67.30;;;;;;5036563;28;20037;-81
2021/09/14 03:08:47;;;;;;;5.00;3.28;;;18.80;67.30;;;;;;5020303;28;20033;-81
2021/09/14 03:11:18;;;;;;;4.43;3.15;;;18.80;67.30;;;;;;5035750;28;20029;-81
2021/09/14 03:13:50;;;;;;;4.25;2.90;;;18.80;67.40;;;;;;5020528;28;20436;-81
2021/09/14 03:16:17;;;;;;;3.78;2.70;;;18.70;67.30;;;;;;5019562;28;20083;-82
2021/09/14 03:18:43;;;;;;;4.85;3.20;;;18.70;67.30;;;;;;5037949;28;20029;-82
2021/09/14 03:21:12;;;;;;;4.25;3.10;;;18.70;67.40;;;;;;5023392;28;20025;-82
2021/09/14 03:23:38;;;;;;;4.47;3.40;;;18.70;67.40;;;;;;5039732;28;20538;-81
2021/09/14 03:26:04;;;;;;;5.45;3.33;;;18.70;67.50;;;;;;5039698;28;20419;-82
2021/09/14 03:28:30;;;;;;;4.90;3.50;;;18.70;67.40;;;;;;5023287;28;20036;-82
2021/09/14 03:30:56;;;;;;;4.82;3.50;;;18.70;67.40;;;;;;5006801;28;20028;-82
2021/09/14 03:33:23;;;;;;;4.45;3.08;;;18.60;67.40;;;;;;5023330;28;20041;-82
2021/09/14 03:35:50;;;;;;;5.57;3.60;;;18.60;67.40;;;;;;5022846;28;20504;-83
2021/09/14 03:38:16;;;;;;;4.95;3.47;;;18.60;67.40;;;;;;5023406;28;20469;-81
2021/09/14 03:40:42;;;;;;;4.90;3.60;;;18.60;67.40;;;;;;5022927;28;20029;-81
2021/09/14 03:43:13;;;;;;;4.70;3.10;;;18.60;67.40;;;;;;5023127;28;20044;-82
2021/09/14 03:45:44;;;;;;;4.82;3.47;;;18.60;67.40;;;;;;5023079;28;20031;-82
2021/09/14 03:48:12;;;;;;;4.63;3.40;;;18.60;67.50;;;;;;5040134;28;20033;-82
2021/09/14 03:50:39;;;;;;;5.70;3.85;;;18.60;67.50;;;;;;5039389;28;20036;-82
2021/09/14 03:53:05;;;;;;;5.00;3.63;;;18.60;67.50;;;;;;5023003;28;20040;-82
2021/09/14 03:55:31;;;;;;;5.47;3.67;;;18.60;67.50;;;;;;5023473;28;20372;-82
2021/09/14 03:57:58;;;;;;;5.35;3.88;;;18.50;67.50;;;;;;5023109;28;20025;-82
2021/09/14 04:00:24;;;;;;;5.25;3.67;;;18.50;67.50;;;;;;5023009;28;20037;-82
2021/09/14 04:03:14;;;;;;;5.25;3.83;;;18.50;67.50;;;;;;4999549;28;20064;-82
2021/09/14 04:10:38;;;;;;;5.47;3.85;;;18.50;67.60;;;;;;5020088;28;20120;-82
2021/09/14 04:13:05;;;;;;;5.05;3.53;;;18.40;67.60;;;;;;5020187;28;20052;-83
2021/09/14 04:15:31;;;;;;;5.78;3.97;;;18.50;67.60;;;;;;5022302;28;20029;-84
2021/09/14 04:17:59;;;;;;;5.50;3.63;;;18.40;67.60;;;;;;5020602;28;20033;-83
2021/09/14 04:20:25;;;;;;;5.07;3.80;;;18.50;67.70;;;;;;5020006;28;20367;-82
2021/09/14 04:22:51;;;;;;;5.30;3.60;;;18.50;68.30;;;;;;5020069;28;20060;-83
2021/09/14 04:25:18;;;;;;;5.15;3.65;;;18.40;67.70;;;;;;5019639;28;20034;-82
2021/09/14 04:27:44;;;;;;;5.22;3.78;;;18.40;67.70;;;;;;5019872;28;20107;-82
2021/09/14 04:30:10;;;;;;;5.85;4.00;;;18.40;67.70;;;;;;5002420;28;20124;-82
2021/09/14 04:32:36;;;;;;;4.97;3.67;;;18.40;67.70;;;;;;5039264;28;20051;-83
2021/09/14 04:35:03;;;;;;;5.22;4.00;;;18.40;67.70;;;;;;5011560;28;20081;-82
2021/09/14 04:37:30;;;;;;;5.95;4.13;;;18.30;67.70;;;;;;5021963;28;20032;-82
2021/09/14 04:39:56;;;;;;;6.00;4.35;;;18.40;67.80;;;;;;5019566;28;20481;-82
2021/09/14 04:42:22;;;;;;;6.85;4.43;;;18.30;67.80;;;;;;5020501;28;20549;-83
2021/09/14 04:44:48;;;;;;;5.82;3.92;;;18.30;67.70;;;;;;5004246;28;20116;-82
2021/09/14 04:47:14;;;;;;;5.88;4.10;;;18.30;67.80;;;;;;5035234;28;20026;-82
2021/09/14 04:49:41;;;;;;;5.47;3.85;;;18.30;67.80;;;;;;5018847;28;20079;-82
2021/09/14 04:52:07;;;;;;;5.20;4.10;;;18.30;67.80;;;;;;5002212;28;20033;-82
2021/09/14 04:54:34;;;;;;;5.82;3.88;;;18.30;67.80;;;;;;5019381;28;20026;-82
2021/09/14 04:57:00;;;;;;;5.85;3.92;;;18.30;67.80;;;;;;5018221;28;20508;-81
2021/09/14 04:59:27;;;;;;;5.80;4.13;;;18.30;67.80;;;;;;5018783;28;20124;-82
2021/09/14 05:01:53;;;;;;;5.88;4.38;;;18.30;67.90;;;;;;5018916;28;20048;-81
2021/09/14 05:04:19;;;;;;;5.68;4.40;;;18.20;67.80;;;;;;5022165;28;20381;-81
2021/09/14 05:06:45;;;;;;;6.68;3.90;;;18.20;67.80;;;;;;5021805;28;20076;-82
2021/09/14 05:09:11;;;;;;;6.45;4.22;;;18.20;67.90;;;;;;5021747;28;20058;-81
2021/09/14 05:11:44;;;;;;;6.22;3.90;;;18.20;67.90;;;;;;5022583;28;20032;-81
2021/09/14 05:14:11;;;;;;;5.50;3.85;;;18.20;67.90;;;;;;5021408;28;20132;-81
2021/09/14 05:16:50;;;;;;;5.40;4.25;;;18.20;67.90;;;;;;5023689;28;20033;-81
2021/09/14 05:19:36;;;;;;;5.53;3.85;;;18.20;67.90;;;;;;5023063;28;20041;-82
2021/09/14 05:22:04;;;;;;;5.50;4.07;;;18.20;67.90;;;;;;5022285;28;20044;-81
2021/09/14 05:24:32;;;;;;;6.25;3.85;;;18.20;67.90;;;;;;5037794;28;20033;-82
2021/09/14 05:26:58;;;;;;;5.47;3.83;;;18.10;67.90;;;;;;5021090;28;20029;-80
2021/09/14 05:29:25;;;;;;;5.88;4.00;;;18.10;68.00;;;;;;5037687;28;20380;-82
2021/09/14 05:31:53;;;;;;;6.00;4.25;;;18.10;68.00;;;;;;5021345;28;20033;-81
2021/09/14 05:34:23;;;;;;;5.65;4.40;;;18.10;68.00;;;;;;5021209;28;20033;-80
2021/09/14 05:36:49;;;;;;;5.75;3.95;;;18.10;68.00;;;;;;5037393;28;20035;-80
2021/09/14 05:39:15;;;;;;;7.40;4.78;;;18.10;68.00;;;;;;5037292;28;20025;-81
2021/09/14 05:41:41;;;;;;;5.30;4.00;;;18.00;68.00;;;;;;5020385;28;20087;-81
2021/09/14 05:44:09;;;;;;;5.25;4.05;;;18.00;68.00;;;;;;5020973;28;20048;-81
2021/09/14 05:46:37;;;;;;;5.70;4.32;;;18.00;68.00;;;;;;5021187;28;20036;-82
2021/09/14 05:49:03;;;;;;;5.70;4.45;;;18.00;68.10;;;;;;5036994;28;20017;-81
2021/09/14 05:51:29;;;;;;;5.70;4.18;;;18.00;68.10;;;;;;5020876;28;20040;-82
2021/09/14 05:53:59;;;;;;;5.55;4.20;;;18.00;68.10;;;;;;5020727;28;20040;-82
2021/09/14 05:56:30;;;;;;;6.25;4.38;;;18.00;68.10;;;;;;5021279;28;20361;-81
2021/09/14 05:58:59;;;;;;;5.25;3.75;;;18.00;68.10;;;;;;5020758;28;20044;-81
2021/09/14 06:01:25;;;;;;;5.53;4.20;;;18.00;68.10;;;;;;5036499;28;20031;-79
2021/09/14 06:03:51;;;;;;;6.28;4.40;;;18.00;68.20;;;;;;5019609;28;20049;-78
2021/09/14 06:06:17;;;;;;;6.13;4.57;;;18.00;68.20;;;;;;5036837;28;20029;-82
2021/09/14 06:08:43;;;;;;;5.65;3.92;;;18.00;68.20;;;;;;5020047;28;20529;-80
2021/09/14 06:11:10;;;;;;;6.05;4.45;;;18.00;68.20;;;;;;5020546;28;20033;-79
2021/09/14 06:13:36;;;;;;;5.70;3.78;;;18.00;68.30;;;;;;5020280;28;20044;-79
2021/09/14 06:16:04;;;;;;;5.53;3.90;;;17.90;68.30;;;;;;5004296;28;20086;-79
2021/09/14 06:18:29;;;;;;;5.43;3.75;;;18.00;68.30;;;;;;5036088;28;20154;-79
2021/09/14 06:20:55;;;;;;;5.53;4.00;;;18.00;68.30;;;;;;5020020;28;20064;-79
2021/09/14 06:23:23;;;;;;;6.13;4.03;;;18.00;68.40;;;;;;5004552;28;20041;-79
2021/09/14 06:25:51;;;;;;;5.03;3.78;;;17.90;68.30;;;;;;5020335;28;20124;-80
2021/09/14 06:28:17;;;;;;;6.95;4.03;;;17.90;68.40;;;;;;5020169;28;20062;-79
2021/09/14 06:30:43;;;;;;;6.05;4.38;;;17.90;68.40;;;;;;5020936;28;20380;-80
2021/09/14 06:33:12;;;;;;;5.93;4.28;;;18.00;68.50;;;;;;5037334;28;20491;-80
2021/09/14 06:35:44;;;;;;;6.45;4.25;;;17.90;68.50;;;;;;5037502;28;20458;-80
2021/09/14 06:38:18;;;;;;;6.25;4.68;;;17.90;68.50;;;;;;5036082;28;20036;-81
2021/09/14 06:40:45;;;;;;;6.38;4.65;;;17.90;68.50;;;;;;5020467;28;20098;-79
2021/09/14 06:43:11;;;;;;;5.78;4.50;;;18.00;68.60;;;;;;5035862;28;20040;-79
2021/09/14 06:45:46;;;;;;;5.28;4.18;;;17.90;68.60;;;;;;5021256;28;20060;-80
2021/09/14 06:48:28;;;;;;;5.17;4.00;;;17.90;68.60;;;;;;5023371;28;20029;-83
2021/09/14 06:50:54;;;;;;;6.00;4.30;;;17.90;68.60;;;;;;5020613;28;20025;-83
2021/09/14 06:53:20;;;;;;;5.95;4.15;;;17.90;68.60;;;;;;5019884;28;20086;-83
2021/09/14 06:55:45;;;;;;;5.65;4.15;;;17.90;68.70;;;;;;5020903;28;20044;-84
2021/09/14 06:58:11;;;;;;;6.35;4.38;;;18.00;68.70;;;;;;5020323;28;20039;-84
2021/09/14 07:00:37;;;;;;;6.03;4.60;;;18.00;69.40;;;;;;5036413;28;20362;-84
2021/09/14 07:03:05;;;;;;;6.13;4.55;;;18.00;68.70;;;;;;5009202;28;20080;-83
2021/09/14 07:05:31;;;;;;;6.60;4.50;;;18.00;68.80;;;;;;5016763;28;20068;-82
2021/09/14 07:07:57;;;;;;;6.03;4.18;;;18.00;68.80;;;;;;5016895;28;20032;-83
2021/09/14 07:10:23;;;;;;;5.35;3.88;;;18.00;68.80;;;;;;5000461;28;20040;-84
2021/09/14 07:12:48;;;;;;;6.55;4.57;;;18.00;68.80;;;;;;5000624;28;20025;-83
2021/09/14 07:15:14;;;;;;;6.47;4.25;;;18.00;68.80;;;;;;5016430;28;20026;-83
2021/09/14 07:17:40;;;;;;;5.43;4.18;;;18.00;68.80;;;;;;5017074;28;20034;-83
2021/09/14 07:20:07;;;;;;;5.35;4.00;;;18.00;68.80;;;;;;4999884;28;20036;-82
2021/09/14 07:22:33;;;;;;;5.82;4.30;;;18.00;68.80;;;;;;4999897;28;20068;-82
2021/09/14 07:24:59;;;;;;;5.38;3.92;;;18.10;68.90;;;;;;5016257;28;20064;-82
2021/09/14 07:27:25;;;;;;;5.45;3.90;;;18.10;68.90;;;;;;5016175;28;20022;-82
2021/09/14 07:29:51;;;;;;;6.65;4.30;;;18.10;68.90;;;;;;5033928;28;20524;-82
2021/09/14 07:32:18;;;;;;;6.28;4.65;;;18.10;69.00;;;;;;5016979;28;20045;-82
2021/09/14 07:34:44;;;;;;;5.95;3.92;;;18.10;68.90;;;;;;5000595;28;20022;-83
2021/09/14 07:37:09;;;;;;;5.63;4.20;;;18.10;68.90;;;;;;5016713;28;20387;-83
2021/09/14 07:39:35;;;;;;;5.60;4.13;;;18.10;68.90;;;;;;5017500;28;20030;-83
2021/09/14 07:42:01;;;;;;;6.15;4.43;;;18.10;69.00;;;;;;5017551;28;20084;-83
2021/09/14 07:44:27;;;;;;;5.70;4.35;;;18.10;69.00;;;;;;5017293;28;20425;-83
2021/09/14 07:46:53;;;;;;;6.25;4.60;;;18.10;69.00;;;;;;5016713;28;20084;-82
2021/09/14 07:49:19;;;;;;;5.35;4.28;;;18.10;69.00;;;;;;5015962;28;20033;-82
2021/09/14 07:51:45;;;;;;;5.47;4.03;;;18.20;69.10;;;;;;5015958;28;20038;-83
2021/09/14 07:54:11;;;;;;;5.65;4.20;;;18.20;69.10;;;;;;5000092;28;20044;-82
2021/09/14 07:56:36;;;;;;;5.32;3.92;;;18.20;69.10;;;;;;5016580;28;20021;-83
2021/09/14 07:59:02;;;;;;;5.32;4.10;;;18.20;69.10;;;;;;4999635;28;20037;-83
2021/09/14 08:01:28;;;;;;;5.90;4.70;;;18.20;69.10;;;;;;5032349;28;20370;-83
2021/09/14 08:03:54;;;;;;;6.47;4.78;;;18.20;69.10;;;;;;5033455;28;20099;-82
2021/09/14 08:06:20;;;;;;;7.07;4.60;;;18.20;69.10;;;;;;5038445;28;20041;-83
2021/09/14 08:08:46;;;;;;;6.07;4.63;;;18.20;69.10;;;;;;5039353;28;20032;-83
2021/09/14 08:11:12;;;;;;;6.22;4.43;;;18.30;69.20;;;;;;5039602;28;20035;-83
2021/09/14 08:13:38;;;;;;;6.38;4.53;;;18.30;69.20;;;;;;5038974;28;20044;-83
2021/09/14 08:16:04;;;;;;;6.10;4.68;;;18.30;69.20;;;;;;5022887;28;20033;-81
2021/09/14 08:18:30;;;;;;;5.85;4.28;;;18.30;69.20;;;;;;5039101;28;20032;-82
2021/09/14 08:20:56;;;;;;;5.10;3.95;;;18.30;69.20;;;;;;5038976;28;20465;-82
2021/09/14 08:23:22;;;;;;;6.40;4.78;;;18.40;69.90;;;;;;5022561;28;20036;-82
2021/09/14 08:25:48;;;;;;;6.82;4.65;;;18.40;69.20;;;;;;5023205;28;20066;-82
2021/09/14 08:28:14;;;;;;;6.07;4.55;;;18.40;69.20;;;;;;5039160;28;20021;-82
2021/09/14 08:30:40;;;;;;;6.25;4.80;;;18.40;69.20;;;;;;5022058;28;20044;-82
2021/09/14 08:33:06;;;;;;;6.07;4.43;;;18.40;69.20;;;;;;5022835;28;20037;-82
2021/09/14 08:35:31;;;;;;;6.20;4.47;;;18.40;69.20;;;;;;5006439;28;20433;-82
2021/09/14 08:37:58;;;;;;;6.35;4.82;;;18.40;69.20;;;;;;5038536;28;20033;-82
2021/09/14 08:40:24;;;;;;;6.78;5.07;;;18.50;69.20;;;;;;5022782;28;20037;-81
2021/09/14 08:42:50;;;;;;;6.00;4.47;;;18.50;69.20;;;;;;5038340;28;20033;-81
2021/09/14 08:45:16;;;;;;;5.60;4.35;;;18.50;69.10;;;;;;5022626;28;20040;-82
2021/09/14 08:47:42;;;;;;;5.82;4.10;;;18.60;69.10;;;;;;5021953;28;20025;-81
2021/09/14 08:50:09;;;;;;;6.22;4.30;;;18.60;69.10;;;;;;5021923;28;20377;-82
2021/09/14 08:52:36;;;;;;;6.10;5.10;;;18.60;69.10;;;;;;5021385;28;20036;-82
2021/09/14 08:55:03;;;;;;;6.05;4.72;;;18.60;69.00;;;;;;5038019;28;20029;-82
2021/09/14 08:57:29;;;;;;;5.70;4.32;;;18.70;69.00;;;;;;5038162;28;20029;-83
2021/09/14 08:59:58;;;;;;;6.40;4.80;;;18.70;68.90;;;;;;5038234;28;20036;-82
2021/09/14 09:02:24;;;;;;;6.13;4.22;;;18.70;68.80;;;;;;5019976;28;20103;-81
2021/09/14 09:05:08;;;;;;;6.32;4.90;;;18.80;68.80;;;;;;5021930;28;20044;-81
2021/09/14 09:07:37;;;;;;;5.53;4.30;;;18.80;68.90;;;;;;5022342;28;20040;-82
2021/09/14 09:10:15;;;;;;;6.28;4.50;;;18.90;68.60;;;;;;5022159;28;20143;-82
2021/09/14 09:12:44;;;;;;;6.10;4.97;;;19.00;68.70;;;;;;5021216;28;20037;-83
2021/09/14 09:15:21;;;;;;;5.82;4.25;;;19.00;68.50;;;;;;5038266;28;20115;-84
2021/09/14 09:18:08;;;;;;;5.50;4.03;;;19.10;69.10;;;;;;5038992;28;20021;-82
2021/09/14 09:20:36;;;;;;;5.78;4.40;;;19.10;68.40;;;;;;5037182;28;20072;-82
2021/09/14 09:23:17;;;;;;;5.90;4.35;;;19.20;68.30;;;;;;5037878;28;20070;-83
2021/09/14 09:25:43;;;;;;;6.30;4.28;;;19.20;68.30;;;;;;5038681;28;20128;-82
2021/09/14 09:28:10;;;;;;;6.28;4.25;;;19.30;68.20;;;;;;5021251;28;20123;-82
2021/09/14 09:30:40;;;;;;;5.55;4.50;;;19.40;68.20;;;;;;5037514;28;20483;-83
2021/09/14 09:33:08;;;;;;;5.90;4.50;;;19.50;68.20;;;;;;5037745;28;20117;-80
2021/09/14 09:35:37;;;;;;;5.75;3.92;;;19.50;68.10;;;;;;5037298;28;20484;-81
2021/09/14 09:38:04;;;;;;;5.80;4.15;;;19.60;68.10;;;;;;5037498;28;20033;-81
2021/09/14 09:40:32;;;;;;;6.30;4.50;;;19.60;68.00;;;;;;5036894;28;20120;-81
2021/09/14 09:43:01;;;;;;;5.20;3.85;;;19.70;68.00;;;;;;5020917;28;20041;-81
2021/09/14 09:45:27;;;;;;;6.50;5.00;;;19.80;67.90;;;;;;5037434;28;20049;-82
2021/09/14 09:47:53;;;;;;;5.97;4.43;;;19.80;67.90;;;;;;5036908;28;20102;-82
2021/09/14 09:50:19;;;;;;;5.63;4.18;;;19.90;67.90;;;;;;5037630;28;20025;-82
2021/09/14 09:52:45;;;;;;;6.03;4.68;;;20.00;67.80;;;;;;5020096;28;20487;-82
2021/09/14 09:55:12;;;;;;;5.95;4.57;;;20.10;67.80;;;;;;5036933;28;20489;-82
2021/09/14 09:57:39;;;;;;;6.35;4.63;;;20.10;67.70;;;;;;5037022;28;20021;-82
2021/09/14 10:00:09;;;;;;;5.63;4.40;;;20.20;67.70;;;;;;5020235;28;20021;-82
2021/09/14 10:02:43;;;;;;;6.00;4.55;;;20.30;67.70;;;;;;5037445;28;20389;-82
2021/09/14 10:05:09;;;;;;;5.65;4.53;;;20.30;67.60;;;;;;5036947;28;20057;-82
2021/09/14 10:07:36;;;;;;;5.35;4.63;;;20.40;67.60;;;;;;5036735;28;20432;-81
2021/09/14 10:10:03;;;;;;;5.68;4.32;;;20.50;67.60;;;;;;5036550;28;20110;-82
2021/09/14 10:12:31;;;;;;;5.32;4.22;;;20.50;67.60;;;;;;5036643;28;20124;-82
2021/09/14 10:15:00;;;;;;;6.22;4.95;;;20.60;67.60;;;;;;5020006;28;20079;-81
2021/09/14 10:17:26;;;;;;;5.45;4.60;;;20.60;67.50;;;;;;5036657;28;20029;-82
2021/09/14 10:19:52;;;;;;;6.32;4.95;;;20.70;67.50;;;;;;5036470;28;20075;-81
2021/09/14 10:22:26;;;;;;;5.75;4.65;;;20.70;67.50;;;;;;5019803;28;20416;-82
2021/09/14 10:25:01;;;;;;;6.05;4.53;;;20.80;67.60;;;;;;5037259;28;20040;-82
2021/09/14 10:27:35;;;;;;;6.15;4.55;;;20.90;67.50;;;;;;5035662;28;20033;-81
2021/09/14 10:30:02;;;;;;;5.90;4.55;;;20.90;67.60;;;;;;5036518;28;20025;-81
2021/09/14 10:32:38;;;;;;;5.75;4.57;;;20.90;67.50;;;;;;5019649;28;20029;-81
2021/09/14 10:35:04;;;;;;;5.53;4.20;;;21.00;67.60;;;;;;5036284;28;20033;-81
2021/09/14 10:37:31;;;;;;;6.30;4.70;;;21.00;67.40;;;;;;5020554;28;20457;-81
2021/09/14 10:40:08;;;;;;;6.00;4.38;;;21.10;67.50;;;;;;5036032;28;20119;-81
2021/09/14 10:42:38;;;;;;;5.45;4.32;;;21.10;67.50;;;;;;5036287;28;20411;-82
2021/09/14 10:45:23;;;;;;;6.07;4.45;;;21.10;67.40;;;;;;5036223;28;20078;-82
2021/09/14 10:47:49;;;;;;;;;;;21.20;67.60;;;;;;5020139;28;20458;-81
2021/09/14 10:50:29;;;;;;;4.50;3.70;;;21.30;67.30;;;;;;5053093;28;19909;-81
2021/09/14 10:53:00;;;;;;;6.43;4.35;;;21.30;67.40;;;;;;5019447;28;20051;-81
2021/09/14 10:55:26;;;;;;;4.93;3.70;;;21.30;67.30;;;;;;5035893;28;20025;-81
2021/09/14 10:58:00;;;;;;;5.50;4.18;;;21.40;67.40;;;;;;5019635;28;20061;-82
2021/09/14 11:00:33;;;;;;;5.30;4.07;;;21.40;67.50;;;;;;5036095;28;20063;-82
2021/09/14 11:03:06;;;;;;;5.47;4.22;;;21.50;67.40;;;;;;5035231;28;20045;-81
2021/09/14 11:05:34;;;;;;;5.93;4.30;;;21.50;67.40;;;;;;5017060;28;20056;-82
2021/09/14 11:08:02;;;;;;;5.78;4.72;;;21.50;67.30;;;;;;5020128;28;20683;-82
2021/09/14 11:10:33;;;;;;;5.90;4.80;;;21.60;67.40;;;;;;5035714;28;20384;-82
2021/09/14 11:12:59;;;;;;;6.70;4.90;;;21.60;67.40;;;;;;5019242;28;20124;-81
2021/09/14 11:15:25;;;;;;;5.65;4.55;;;21.70;67.50;;;;;;5036026;28;20033;-81
2021/09/14 11:17:51;;;;;;;5.43;4.38;;;21.70;67.50;;;;;;5035720;28;20078;-81
2021/09/14 11:20:20;;;;;;;6.20;4.75;;;21.80;67.50;;;;;;5018795;28;20029;-82
2021/09/14 11:22:49;;;;;;;5.50;4.65;;;21.80;67.60;;;;;;5020471;28;20094;-82
2021/09/14 11:25:18;;;;;;;6.07;4.82;;;21.90;67.70;;;;;;5054590;28;20035;-81
2021/09/14 11:28:16;;;;;;;6.22;4.75;;;21.90;67.60;;;;;;5036765;28;20090;-82
2021/09/14 11:30:55;;;;;;;5.40;4.40;;;21.90;67.80;;;;;;5042899;28;20040;-83
2021/09/14 11:33:23;;;;;;;5.53;4.47;;;22.00;67.70;;;;;;5035991;28;20112;-82
2021/09/14 11:35:50;;;;;;;5.97;4.72;;;22.00;67.70;;;;;;5036086;28;20021;-82
2021/09/14 11:38:19;;;;;;;6.90;5.38;;;22.10;67.80;;;;;;5019176;28;20033;-82
2021/09/14 11:40:51;;;;;;;6.20;5.05;;;22.20;67.90;;;;;;5039250;28;20385;-82
2021/09/14 11:43:19;;;;;;;6.75;5.03;;;22.20;68.10;;;;;;5040160;28;20080;-83
2021/09/14 11:45:44;;;;;;;6.10;5.00;;;22.20;68.10;;;;;;5039512;28;20135;-82
2021/09/14 11:48:25;;;;;;;6.00;5.00;;;22.30;68.20;;;;;;5023174;28;20566;-82
2021/09/14 11:51:04;;;;;;;6.75;5.18;;;22.30;68.30;;;;;;5039811;28;20449;-82
2021/09/14 11:53:31;;;;;;;5.95;4.80;;;22.30;68.30;;;;;;5040060;28;20086;-81
2021/09/14 11:55:57;;;;;;;7.85;4.93;;;22.40;68.30;;;;;;5040160;28;20060;-81
2021/09/14 11:58:34;;;;;;;7.38;5.00;;;22.40;68.30;;;;;;5039576;28;20025;-81
2021/09/14 12:01:07;;;;;;;6.22;5.18;;;22.40;68.40;;;;;;5040054;28;20044;-82
2021/09/14 12:03:44;;;;;;;5.88;4.80;;;22.40;68.40;;;;;;5039364;28;20128;-82
2021/09/14 12:06:20;;;;;;;6.55;4.95;;;22.50;68.50;;;;;;5039721;28;20048;-82
2021/09/14 12:08:46;;;;;;;6.32;5.28;;;22.50;68.40;;;;;;5039576;28;20048;-82
2021/09/14 12:11:23;;;;;;;6.13;4.88;;;22.50;68.50;;;;;;5022650;28;20029;-82
2021/09/14 12:13:55;;;;;;;6.20;4.63;;;22.50;68.70;;;;;;5039193;28;20040;-82
2021/09/14 12:16:29;;;;;;;5.82;4.78;;;22.60;68.70;;;;;;5038817;28;20033;-81
2021/09/14 12:18:56;;;;;;;5.28;4.07;;;22.60;68.70;;;;;;5057028;28;20174;-81
2021/09/14 12:21:22;;;;;;;5.38;4.53;;;22.70;68.70;;;;;;5022615;28;20055;-81
2021/09/14 12:23:48;;;;;;;5.80;4.80;;;22.70;68.80;;;;;;5023076;28;20062;-80
2021/09/14 12:26:28;;;;;;;5.47;4.15;;;22.70;68.90;;;;;;5022102;28;20120;-81
2021/09/14 12:28:56;;;;;;;5.88;4.18;;;22.80;69.00;;;;;;5038985;28;20472;-81
2021/09/14 12:31:23;;;;;;;5.10;4.22;;;22.80;68.90;;;;;;5022531;28;20029;-82
2021/09/14 12:33:49;;;;;;;5.03;4.10;;;22.80;69.00;;;;;;5039199;28;20108;-81
2021/09/14 12:36:16;;;;;;;5.18;4.10;;;22.90;69.00;;;;;;5022100;28;20110;-82
2021/09/14 12:38:42;;;;;;;5.30;4.43;;;22.90;69.00;;;;;;5038391;28;20025;-81
2021/09/14 12:41:08;;;;;;;6.10;4.63;;;22.90;68.90;;;;;;5038729;28;20043;-82
2021/09/14 12:43:34;;;;;;;5.53;4.30;;;22.90;68.90;;;;;;5038170;28;20473;-82
2021/09/14 12:46:00;;;;;;;4.75;3.83;;;23.00;68.90;;;;;;5021992;28;20127;-82
2021/09/14 12:48:26;;;;;;;5.13;4.05;;;23.00;68.80;;;;;;5022015;28;20477;-82
2021/09/14 12:50:53;;;;;;;5.50;4.25;;;23.00;68.70;;;;;;5021288;28;20029;-82
2021/09/14 12:53:19;;;;;;;4.65;3.85;;;23.10;68.70;;;;;;5038153;28;20113;-82
2021/09/14 12:55:45;;;;;;;5.82;4.45;;;23.10;68.70;;;;;;5021451;28;20060;-82
2021/09/14 12:58:11;;;;;;;5.03;3.55;;;23.20;68.70;;;;;;5021712;28;20040;-82
2021/09/14 13:00:37;;;;;;;4.63;3.80;;;23.20;68.50;;;;;;5021512;28;20108;-81
2021/09/14 13:03:03;;;;;;;4.70;3.53;;;23.20;68.40;;;;;;5021708;28;20086;-82
2021/09/14 13:05:31;;;;;;;4.93;3.97;;;23.20;68.40;;;;;;5021155;28;20080;-82
2021/09/14 13:07:57;;;;;;;5.28;3.42;;;23.30;68.50;;;;;;5038068;28;20358;-82
2021/09/14 13:10:23;;;;;;;5.70;4.13;;;23.30;68.50;;;;;;5037920;28;20128;-82
2021/09/14 13:18:19;;;;;;;4.82;3.40;;;23.40;68.00;;;;;;5024185;28;20029;-82
2021/09/14 13:20:45;;;;;;;4.25;3.22;;;23.50;67.80;;;;;;5037571;28;20350;-82
2021/09/14 13:23:11;;;;;;;4.18;3.35;;;23.50;67.70;;;;;;5021297;28;20036;-82
2021/09/14 13:25:37;;;;;;;4.38;3.53;;;23.50;67.50;;;;;;5021038;28;20094;-80
2021/09/14 13:28:03;;;;;;;4.40;3.50;;;23.60;67.30;;;;;;5021240;28;20083;-80
2021/09/14 13:30:29;;;;;;;3.95;3.08;;;23.60;67.20;;;;;;5021204;28;20032;-83
2021/09/14 13:32:54;;;;;;;4.22;3.15;;;23.60;67.00;;;;;;5037587;28;20033;-82
2021/09/14 13:35:20;;;;;;;4.38;3.40;;;23.70;67.00;;;;;;5021007;28;20028;-80
2021/09/14 13:37:46;;;;;;;4.03;3.13;;;23.70;66.90;;;;;;5037312;28;20040;-80
2021/09/14 13:40:12;;;;;;;4.32;3.25;;;23.70;66.80;;;;;;5037175;28;20033;-80
2021/09/14 13:42:38;;;;;;;4.00;2.95;;;23.70;66.70;;;;;;5020649;28;20091;-80
2021/09/14 13:47:49;;;;;;;4.88;3.20;;;23.80;66.50;;;;;;5023785;28;20056;-79
2021/09/14 13:50:14;;;;;;;3.75;3.13;;;23.80;66.50;;;;;;5020508;28;20122;-79
2021/09/14 13:52:40;;;;;;;5.18;3.47;;;23.80;66.50;;;;;;5020337;28;20056;-79
2021/09/14 13:55:06;;;;;;;3.90;3.22;;;23.80;66.40;;;;;;5022144;28;20061;-80